createdAt,value
2018-09-01T00:00:11.417Z,3.45
2018-09-01T00:00:44.438Z,4.62
2018-09-01T00:01:17.364Z,4.28
2018-09-01T00:01:50.308Z,3.92
2018-09-01T00:02:23.260Z,3.90
2018-09-01T00:02:56.406Z,3.95
2018-09-01T00:03:29.318Z,4.50
2018-09-01T00:04:02.260Z,3.72
2018-09-01T00:04:35.175Z,4.72
2018-09-01T00:05:08.083Z,3.80
2018-09-01T00:05:41.031Z,5.67
2018-09-01T00:06:13.934Z,3.87
2018-09-01T00:06:46.849Z,3.85
2018-09-01T00:07:19.841Z,3.95
2018-09-01T00:07:52.897Z,3.90
2018-09-01T00:08:25.823Z,3.65
2018-09-01T00:08:58.760Z,3.70
2018-09-01T00:09:34.418Z,3.52
2018-09-01T00:10:07.358Z,3.40
2018-09-01T00:10:40.285Z,4.83
2018-09-01T00:11:13.299Z,4.17
2018-09-01T00:11:46.278Z,4.33
2018-09-01T00:12:19.239Z,3.83
2018-09-01T00:12:52.226Z,3.85
2018-09-01T00:13:25.287Z,3.75
2018-09-01T00:13:58.264Z,4.53
2018-09-01T00:14:31.177Z,3.87
2018-09-01T00:15:04.474Z,3.83
2018-09-01T00:15:37.389Z,3.70
2018-09-01T00:16:10.337Z,3.15
2018-09-01T00:16:43.968Z,3.70
2018-09-01T00:17:22.470Z,3.55
2018-09-01T00:17:55.383Z,3.75
2018-09-01T00:18:28.345Z,4.05
2018-09-01T00:19:01.274Z,3.45
2018-09-01T00:19:34.465Z,4.12
2018-09-01T00:20:07.378Z,3.35
2018-09-01T00:20:40.292Z,3.95
2018-09-01T00:21:13.264Z,4.00
2018-09-01T00:21:46.197Z,3.60
2018-09-01T00:22:19.186Z,3.67
2018-09-01T00:22:52.120Z,4.20
2018-09-01T00:23:25.029Z,4.58
2018-09-01T00:24:00.528Z,4.40
2018-09-01T00:24:33.470Z,4.10
2018-09-01T00:25:06.390Z,3.65
2018-09-01T00:25:39.472Z,3.85
2018-09-01T00:26:12.392Z,3.87
2018-09-01T00:26:45.532Z,3.95
2018-09-01T00:27:18.455Z,3.50
2018-09-01T00:27:51.368Z,4.00
2018-09-01T00:28:24.279Z,3.58
2018-09-01T00:28:57.223Z,3.70
2018-09-01T00:29:30.189Z,4.40
2018-09-01T00:30:03.086Z,4.87
2018-09-01T00:30:36.019Z,3.90
2018-09-01T00:31:09.089Z,4.20
2018-09-01T00:31:42.006Z,4.00
2018-09-01T00:32:14.921Z,4.15
2018-09-01T00:32:47.870Z,5.10
2018-09-01T00:33:20.800Z,4.03
2018-09-01T00:33:53.760Z,4.80
2018-09-01T00:34:26.679Z,4.80
2018-09-01T00:34:59.629Z,5.67
2018-09-01T00:35:32.687Z,4.85
2018-09-01T00:36:05.709Z,4.83
2018-09-01T00:36:38.724Z,4.72
2018-09-01T00:37:11.746Z,4.15
2018-09-01T00:37:50.259Z,4.83
2018-09-01T00:38:28.708Z,4.50
2018-09-01T00:39:05.135Z,5.47
2018-09-01T00:39:42.960Z,5.22
2018-09-01T00:40:15.979Z,4.83
2018-09-01T00:40:48.942Z,6.30
2018-09-01T00:41:21.861Z,4.97
2018-09-01T00:41:54.876Z,5.22
2018-09-01T00:42:27.808Z,4.83
2018-09-01T00:43:01.208Z,4.30
2018-09-01T00:43:34.104Z,5.53
2018-09-01T00:44:07.048Z,6.03
2018-09-01T00:44:39.986Z,5.60
2018-09-01T00:45:12.891Z,5.10
2018-09-01T00:45:45.808Z,4.75
2018-09-01T00:46:18.734Z,4.42
2018-09-01T00:46:52.715Z,4.92
2018-09-01T00:47:25.628Z,4.90
2018-09-01T00:47:58.549Z,4.35
2018-09-01T00:48:31.473Z,4.35
2018-09-01T00:49:04.381Z,4.60
2018-09-01T00:49:37.285Z,4.47
2018-09-01T00:50:10.224Z,4.60
2018-09-01T00:50:43.155Z,4.75
2018-09-01T00:51:16.235Z,5.20
2018-09-01T00:51:49.829Z,5.22
2018-09-01T00:52:22.937Z,5.03
2018-09-01T00:52:55.875Z,5.03
2018-09-01T00:53:28.910Z,4.75
2018-09-01T00:54:02.302Z,5.83
2018-09-01T00:54:35.737Z,4.92
2018-09-01T00:55:13.197Z,5.10
2018-09-01T00:55:46.175Z,4.37
2018-09-01T00:56:19.086Z,5.10
2018-09-01T00:56:51.981Z,4.90
2018-09-01T00:57:24.875Z,4.33
2018-09-01T00:57:57.849Z,4.25
2018-09-01T00:58:30.775Z,5.12
2018-09-01T00:59:03.707Z,4.55
2018-09-01T00:59:36.621Z,3.90
2018-09-01T01:00:09.557Z,4.85
2018-09-01T01:00:42.507Z,3.98
2018-09-01T01:01:15.465Z,3.83
2018-09-01T01:01:48.442Z,3.40
2018-09-01T01:02:21.365Z,4.33
2018-09-01T01:02:54.287Z,4.20
2018-09-01T01:03:27.209Z,4.03
2018-09-01T01:04:00.120Z,4.22
2018-09-01T01:04:33.298Z,3.70
2018-09-01T01:05:06.407Z,3.77
2018-09-01T01:05:39.350Z,4.05
2018-09-01T01:06:12.457Z,3.92
2018-09-01T01:06:45.485Z,3.95
2018-09-01T01:07:18.413Z,4.10
2018-09-01T01:07:51.345Z,3.98
2018-09-01T01:08:24.236Z,4.05
2018-09-01T01:08:57.151Z,4.10
2018-09-01T01:09:30.062Z,4.40
2018-09-01T01:10:02.994Z,4.35
2018-09-01T01:10:35.942Z,3.85
2018-09-01T01:11:08.900Z,3.87
2018-09-01T01:11:42.135Z,4.00
2018-09-01T01:12:15.336Z,3.80
2018-09-01T01:12:49.029Z,4.75
2018-09-01T01:13:21.990Z,4.15
2018-09-01T01:13:54.911Z,3.90
2018-09-01T01:14:28.094Z,3.87
2018-09-01T01:15:01.160Z,4.08
2018-09-01T01:15:34.081Z,5.20
2018-09-01T01:16:07.054Z,4.92
2018-09-01T01:16:39.954Z,4.85
2018-09-01T01:17:12.875Z,5.03
2018-09-01T01:17:45.885Z,4.67
2018-09-01T01:18:18.815Z,5.05
2018-09-01T01:18:51.722Z,3.67
2018-09-01T01:19:24.640Z,3.40
2018-09-01T01:19:57.566Z,3.92
2018-09-01T01:20:30.468Z,3.52
2018-09-01T01:21:03.418Z,4.55
2018-09-01T01:21:36.312Z,3.83
2018-09-01T01:22:09.248Z,3.80
2018-09-01T01:22:42.196Z,4.00
2018-09-01T01:23:15.125Z,3.72
2018-09-01T01:23:48.074Z,3.87
2018-09-01T01:24:20.966Z,3.80
2018-09-01T01:24:54.116Z,4.03
2018-09-01T01:25:27.060Z,4.10
2018-09-01T01:25:59.997Z,3.90
2018-09-01T01:26:33.297Z,3.70
2018-09-01T01:27:06.241Z,3.83
2018-09-01T01:27:39.566Z,3.40
2018-09-01T01:28:12.504Z,2.92
2018-09-01T01:28:45.445Z,3.20
2018-09-01T01:29:18.386Z,3.83
2018-09-01T01:29:51.499Z,4.00
2018-09-01T01:30:24.426Z,3.27
2018-09-01T01:30:57.332Z,4.10
2018-09-01T01:31:30.413Z,3.62
2018-09-01T01:32:03.586Z,4.03
2018-09-01T01:32:36.795Z,4.37
2018-09-01T01:33:10.220Z,4.20
2018-09-01T01:33:43.223Z,3.80
2018-09-01T01:34:16.264Z,4.15
2018-09-01T01:34:49.517Z,3.83
2018-09-01T01:35:22.453Z,3.50
2018-09-01T01:35:55.346Z,4.12
2018-09-01T01:36:28.279Z,3.90
2018-09-01T01:37:01.250Z,4.20
2018-09-01T01:37:35.494Z,4.40
2018-09-01T01:38:08.412Z,3.62
2018-09-01T01:38:41.368Z,4.47
2018-09-01T01:39:14.299Z,3.50
2018-09-01T01:39:47.228Z,4.03
2018-09-01T01:40:20.231Z,3.95
2018-09-01T01:40:53.172Z,4.35
2018-09-01T01:41:26.109Z,4.20
2018-09-01T01:41:59.045Z,3.67
2018-09-01T01:42:32.108Z,3.70
2018-09-01T01:43:05.302Z,3.85
2018-09-01T01:43:38.204Z,4.50
2018-09-01T01:44:11.655Z,4.20
2018-09-01T01:44:44.578Z,3.95
2018-09-01T01:45:17.531Z,3.47
2018-09-01T01:45:50.636Z,3.47
2018-09-01T01:46:23.783Z,4.45
2018-09-01T01:46:56.734Z,3.98
2018-09-01T01:47:29.654Z,4.05
2018-09-01T01:48:02.703Z,4.40
2018-09-01T01:48:35.825Z,4.00
2018-09-01T01:49:08.751Z,3.58
2018-09-01T01:49:41.796Z,4.20
2018-09-01T01:50:14.660Z,4.25
2018-09-01T01:50:47.601Z,4.00
2018-09-01T01:51:20.800Z,3.75
2018-09-01T01:51:53.719Z,3.83
2018-09-01T01:52:26.650Z,3.60
2018-09-01T01:52:59.560Z,4.47
2018-09-01T01:53:32.639Z,4.00
2018-09-01T01:54:05.856Z,4.10
2018-09-01T01:54:39.038Z,4.22
2018-09-01T01:55:11.972Z,3.90
2018-09-01T01:55:44.921Z,3.62
2018-09-01T01:56:17.866Z,3.58
2018-09-01T01:56:50.904Z,3.83
2018-09-01T01:57:23.825Z,3.90
2018-09-01T01:57:56.771Z,3.62
2018-09-01T01:58:29.713Z,3.30
2018-09-01T01:59:02.827Z,3.75
2018-09-01T01:59:35.759Z,4.10
2018-09-01T02:00:08.958Z,3.85
2018-09-01T02:00:42.079Z,4.10
2018-09-01T02:01:15.017Z,4.12
2018-09-01T02:01:48.178Z,3.92
2018-09-01T02:02:21.113Z,4.00
2018-09-01T02:02:54.026Z,3.92
2018-09-01T02:03:27.071Z,3.83
2018-09-01T02:04:00.277Z,4.10
2018-09-01T02:04:33.206Z,3.85
2018-09-01T02:05:08.409Z,4.25
2018-09-01T02:05:41.614Z,3.67
2018-09-01T02:06:14.600Z,3.72
2018-09-01T02:06:47.549Z,3.40
2018-09-01T02:07:20.699Z,3.55
2018-09-01T02:07:53.726Z,3.70
2018-09-01T02:08:26.650Z,3.60
2018-09-01T02:08:59.567Z,3.35
2018-09-01T02:09:32.612Z,4.08
2018-09-01T02:10:05.754Z,4.00
2018-09-01T02:10:38.721Z,4.10
2018-09-01T02:11:11.846Z,3.80
2018-09-01T02:11:44.814Z,3.47
2018-09-01T02:12:17.894Z,3.30
2018-09-01T02:12:50.819Z,3.37
2018-09-01T02:13:23.766Z,4.40
2018-09-01T02:13:56.673Z,3.50
2018-09-01T02:14:29.609Z,3.65
2018-09-01T02:15:02.550Z,3.20
2018-09-01T02:15:35.475Z,3.55
2018-09-01T02:16:08.424Z,3.62
2018-09-01T02:16:41.331Z,3.77
2018-09-01T02:17:14.253Z,3.15
2018-09-01T02:17:47.166Z,4.15
2018-09-01T02:18:20.105Z,3.12
2018-09-01T02:18:53.030Z,3.70
2018-09-01T02:19:25.977Z,3.70
2018-09-01T02:19:58.906Z,3.40
2018-09-01T02:20:31.886Z,4.05
2018-09-01T02:21:04.877Z,3.15
2018-09-01T02:21:37.800Z,3.60
2018-09-01T02:22:10.719Z,3.08
2018-09-01T02:22:43.678Z,3.65
2018-09-01T02:23:16.582Z,4.45
2018-09-01T02:23:49.519Z,3.45
2018-09-01T02:24:22.687Z,3.62
2018-09-01T02:24:55.586Z,3.47
2018-09-01T02:25:28.487Z,4.62
2018-09-01T02:26:01.546Z,2.90
2018-09-01T02:26:34.745Z,3.37
2018-09-01T02:27:07.798Z,3.52
2018-09-01T02:27:40.807Z,3.45
2018-09-01T02:28:13.730Z,3.20
2018-09-01T02:28:46.834Z,3.60
2018-09-01T02:29:19.772Z,3.27
2018-09-01T02:29:52.892Z,3.72
2018-09-01T02:30:26.029Z,2.83
2018-09-01T02:30:59.251Z,4.00
2018-09-01T02:31:32.186Z,3.65
2018-09-01T02:32:05.112Z,3.65
2018-09-01T02:32:38.176Z,3.95
2018-09-01T02:33:11.100Z,3.65
2018-09-01T02:33:44.018Z,3.62
2018-09-01T02:34:16.981Z,3.67
2018-09-01T02:34:49.994Z,3.62
2018-09-01T02:35:22.943Z,3.67
2018-09-01T02:35:55.866Z,3.25
2018-09-01T02:36:28.812Z,3.65
2018-09-01T02:37:01.803Z,3.60
2018-09-01T02:37:34.756Z,3.20
2018-09-01T02:38:07.757Z,3.30
2018-09-01T02:38:40.680Z,3.45
2018-09-01T02:39:13.583Z,4.25
2018-09-01T02:39:46.503Z,3.47
2018-09-01T02:40:19.444Z,4.70
2018-09-01T02:40:52.376Z,3.50
2018-09-01T02:41:25.316Z,3.65
2018-09-01T02:41:58.481Z,3.90
2018-09-01T02:42:31.662Z,4.25
2018-09-01T02:43:04.886Z,3.20
2018-09-01T02:43:38.101Z,3.72
2018-09-01T02:44:11.190Z,3.58
2018-09-01T02:44:44.151Z,4.10
2018-09-01T02:45:17.072Z,4.03
2018-09-01T02:45:50.042Z,3.65
2018-09-01T02:46:23.489Z,4.30
2018-09-01T02:46:56.475Z,3.92
2018-09-01T02:47:29.401Z,3.20
2018-09-01T02:48:02.390Z,3.50
2018-09-01T02:48:35.281Z,3.72
2018-09-01T02:49:08.249Z,3.62
2018-09-01T02:49:41.217Z,3.92
2018-09-01T02:50:14.125Z,3.33
2018-09-01T02:50:47.030Z,3.85
2018-09-01T02:51:19.955Z,4.00
2018-09-01T02:51:52.961Z,3.85
2018-09-01T02:52:25.873Z,5.47
2018-09-01T02:52:58.961Z,3.30
2018-09-01T02:53:31.880Z,3.70
2018-09-01T02:54:04.791Z,4.05
2018-09-01T02:54:37.804Z,4.37
2018-09-01T02:55:10.777Z,3.55
2018-09-01T02:55:43.742Z,4.05
2018-09-01T02:56:16.819Z,4.40
2018-09-01T02:56:49.730Z,4.58
2018-09-01T02:57:22.702Z,3.75
2018-09-01T02:57:55.603Z,3.87
2018-09-01T02:58:28.598Z,3.70
2018-09-01T02:59:01.537Z,3.70
2018-09-01T02:59:34.849Z,3.72
2018-09-01T03:00:13.216Z,3.65
2018-09-01T03:00:46.410Z,4.08
2018-09-01T03:01:24.854Z,4.20
2018-09-01T03:01:57.752Z,3.70
2018-09-01T03:02:36.254Z,3.42
2018-09-01T03:03:09.177Z,6.87
2018-09-01T03:03:42.110Z,4.10
2018-09-01T03:04:15.021Z,3.52
2018-09-01T03:04:47.945Z,3.65
2018-09-01T03:05:21.032Z,3.60
2018-09-01T03:05:54.059Z,3.60
2018-09-01T03:06:31.440Z,3.10
2018-09-01T03:07:04.387Z,3.20
2018-09-01T03:07:37.318Z,3.30
2018-09-01T03:08:10.508Z,3.35
2018-09-01T03:08:43.440Z,3.70
2018-09-01T03:09:16.666Z,3.20
2018-09-01T03:09:49.730Z,3.52
2018-09-01T03:10:22.650Z,3.52
2018-09-01T03:10:55.657Z,3.65
2018-09-01T03:11:28.767Z,3.67
2018-09-01T03:12:01.819Z,3.70
2018-09-01T03:12:34.734Z,4.20
2018-09-01T03:13:07.650Z,4.15
2018-09-01T03:13:40.563Z,3.77
2018-09-01T03:14:13.506Z,3.80
2018-09-01T03:14:47.429Z,3.15
2018-09-01T03:15:20.421Z,3.65
2018-09-01T03:15:53.349Z,3.75
2018-09-01T03:16:26.252Z,3.20
2018-09-01T03:16:59.198Z,3.80
2018-09-01T03:17:32.171Z,3.85
2018-09-01T03:18:05.119Z,3.67
2018-09-01T03:18:38.061Z,3.65
2018-09-01T03:19:11.005Z,3.87
2018-09-01T03:19:43.967Z,3.47
2018-09-01T03:20:16.893Z,3.58
2018-09-01T03:20:49.824Z,3.90
2018-09-01T03:21:22.759Z,3.30
2018-09-01T03:21:55.667Z,3.60
2018-09-01T03:22:28.589Z,3.80
2018-09-01T03:23:02.005Z,3.55
2018-09-01T03:23:34.952Z,3.60
2018-09-01T03:24:07.889Z,3.10
2018-09-01T03:24:40.898Z,2.90
2018-09-01T03:25:13.828Z,3.70
2018-09-01T03:25:46.957Z,3.20
2018-09-01T03:26:19.892Z,3.58
2018-09-01T03:26:52.997Z,4.35
2018-09-01T03:27:25.917Z,4.35
2018-09-01T03:27:58.848Z,3.58
2018-09-01T03:28:31.776Z,4.08
2018-09-01T03:29:04.933Z,3.83
2018-09-01T03:29:37.850Z,3.60
2018-09-01T03:30:10.783Z,3.85
2018-09-01T03:30:43.734Z,4.45
2018-09-01T03:31:16.649Z,3.80
2018-09-01T03:31:49.593Z,3.70
2018-09-01T03:32:22.535Z,3.60
2018-09-01T03:32:55.447Z,3.52
2018-09-01T03:33:28.383Z,4.03
2018-09-01T03:34:01.287Z,3.77
2018-09-01T03:34:34.200Z,3.72
2018-09-01T03:35:07.142Z,3.33
2018-09-01T03:35:40.074Z,4.00
2018-09-01T03:36:13.051Z,3.85
2018-09-01T03:36:46.062Z,3.65
2018-09-01T03:37:18.979Z,3.85
2018-09-01T03:37:51.906Z,3.92
2018-09-01T03:38:24.837Z,3.70
2018-09-01T03:38:57.794Z,3.55
2018-09-01T03:39:30.875Z,3.62
2018-09-01T03:40:03.845Z,4.17
2018-09-01T03:40:36.752Z,4.70
2018-09-01T03:41:09.697Z,3.77
2018-09-01T03:41:42.683Z,3.58
2018-09-01T03:42:15.638Z,3.40
2018-09-01T03:42:48.766Z,3.40
2018-09-01T03:43:21.779Z,3.37
2018-09-01T03:43:54.771Z,4.58
2018-09-01T03:44:27.694Z,3.95
2018-09-01T03:45:00.827Z,3.35
2018-09-01T03:45:33.742Z,3.30
2018-09-01T03:46:06.691Z,3.75
2018-09-01T03:46:39.625Z,4.00
2018-09-01T03:47:12.516Z,3.45
2018-09-01T03:47:45.405Z,4.05
2018-09-01T03:48:18.333Z,3.35
2018-09-01T03:48:51.705Z,3.52
2018-09-01T03:49:24.729Z,3.37
2018-09-01T03:49:57.925Z,3.50
2018-09-01T03:50:30.916Z,4.00
2018-09-01T03:51:03.965Z,3.37
2018-09-01T03:51:37.157Z,3.52
2018-09-01T03:52:10.301Z,3.30
2018-09-01T03:52:43.246Z,3.80
2018-09-01T03:53:16.378Z,3.50
2018-09-01T03:53:49.565Z,3.60
2018-09-01T03:54:22.493Z,3.50
2018-09-01T03:54:55.614Z,3.67
2018-09-01T03:55:28.804Z,4.17
2018-09-01T03:56:01.758Z,3.50
2018-09-01T03:56:34.834Z,4.60
2018-09-01T03:57:07.894Z,4.00
2018-09-01T03:57:40.884Z,3.90
2018-09-01T03:58:13.801Z,3.95
2018-09-01T03:58:47.058Z,3.52
2018-09-01T03:59:19.966Z,3.70
2018-09-01T03:59:52.981Z,3.50
2018-09-01T04:00:26.825Z,3.87
2018-09-01T04:00:59.995Z,3.33
2018-09-01T04:01:33.031Z,4.10
2018-09-01T04:02:05.976Z,3.55
2018-09-01T04:02:39.212Z,4.60
2018-09-01T04:03:12.336Z,4.72
2018-09-01T04:03:45.253Z,5.20
2018-09-01T04:04:18.201Z,4.20
2018-09-01T04:04:51.253Z,3.80
2018-09-01T04:05:24.482Z,3.40
2018-09-01T04:05:57.581Z,3.98
2018-09-01T04:06:30.511Z,3.90
2018-09-01T04:07:03.701Z,3.40
2018-09-01T04:07:36.881Z,3.00
2018-09-01T04:08:10.079Z,3.05
2018-09-01T04:08:42.979Z,4.00
2018-09-01T04:09:16.114Z,3.65
2018-09-01T04:09:49.289Z,3.60
2018-09-01T04:10:22.691Z,3.72
2018-09-01T04:10:55.633Z,4.08
2018-09-01T04:11:28.542Z,4.05
2018-09-01T04:12:01.649Z,3.75
2018-09-01T04:12:34.576Z,3.47
2018-09-01T04:13:07.718Z,3.62
2018-09-01T04:13:40.949Z,3.70
2018-09-01T04:14:14.225Z,3.52
2018-09-01T04:14:47.238Z,3.87
2018-09-01T04:15:20.480Z,5.28
2018-09-01T04:15:53.397Z,5.65
2018-09-01T04:16:26.309Z,4.60
2018-09-01T04:16:59.701Z,4.08
2018-09-01T04:17:32.882Z,4.05
2018-09-01T04:18:06.062Z,4.55
2018-09-01T04:18:39.219Z,3.52
2018-09-01T04:19:18.989Z,3.92
2018-09-01T04:19:52.141Z,3.55
2018-09-01T04:20:25.046Z,4.37
2018-09-01T04:20:57.939Z,3.95
2018-09-01T04:21:30.834Z,4.28
2018-09-01T04:22:03.756Z,3.30
2018-09-01T04:22:36.702Z,4.45
2018-09-01T04:23:09.604Z,3.95
2018-09-01T04:23:42.533Z,3.60
2018-09-01T04:24:15.618Z,3.42
2018-09-01T04:24:48.530Z,3.47
2018-09-01T04:25:21.942Z,3.40
2018-09-01T04:25:54.903Z,4.17
2018-09-01T04:26:28.289Z,4.08
2018-09-01T04:27:01.498Z,3.87
2018-09-01T04:27:35.289Z,4.03
2018-09-01T04:28:08.190Z,3.85
2018-09-01T04:28:41.361Z,3.20
2018-09-01T04:29:14.866Z,3.02
2018-09-01T04:29:48.067Z,3.40
2018-09-01T04:30:21.192Z,3.62
2018-09-01T04:30:54.499Z,3.42
2018-09-01T04:31:27.950Z,3.70
2018-09-01T04:32:01.088Z,4.17
2018-09-01T04:32:34.208Z,3.70
2018-09-01T04:33:07.317Z,3.77
2018-09-01T04:33:40.569Z,3.65
2018-09-01T04:34:13.462Z,3.52
2018-09-01T04:34:46.393Z,4.05
2018-09-01T04:35:19.512Z,3.55
2018-09-01T04:35:52.439Z,3.67
2018-09-01T04:36:25.485Z,3.20
2018-09-01T04:36:58.420Z,3.80
2018-09-01T04:37:31.585Z,3.45
2018-09-01T04:38:04.546Z,3.70
2018-09-01T04:38:37.585Z,3.60
2018-09-01T04:39:12.005Z,3.12
2018-09-01T04:39:44.944Z,3.80
2018-09-01T04:40:17.874Z,3.60
2018-09-01T04:40:51.086Z,3.52
2018-09-01T04:41:24.263Z,3.58
2018-09-01T04:41:57.595Z,3.80
2018-09-01T04:42:30.813Z,4.35
2018-09-01T04:43:04.104Z,4.08
2018-09-01T04:43:37.155Z,4.20
2018-09-01T04:44:10.730Z,4.37
2018-09-01T04:44:43.843Z,5.05
2018-09-01T04:45:16.945Z,4.20
2018-09-01T04:45:49.892Z,3.50
2018-09-01T04:46:23.083Z,4.10
2018-09-01T04:46:56.279Z,3.70
2018-09-01T04:47:29.390Z,3.70
2018-09-01T04:48:02.366Z,3.87
2018-09-01T04:48:35.464Z,3.83
2018-09-01T04:49:08.429Z,3.58
2018-09-01T04:49:41.349Z,3.60
2018-09-01T04:50:14.647Z,3.67
2018-09-01T04:50:47.544Z,4.22
2018-09-01T04:51:20.735Z,3.35
2018-09-01T04:51:53.917Z,3.55
2018-09-01T04:52:26.983Z,3.98
2018-09-01T04:52:59.922Z,3.60
2018-09-01T04:53:32.846Z,3.30
2018-09-01T04:54:05.966Z,3.08
2018-09-01T04:54:38.871Z,3.30
2018-09-01T04:55:12.184Z,3.35
2018-09-01T04:55:45.133Z,4.35
2018-09-01T04:56:18.124Z,3.90
2018-09-01T04:56:51.415Z,4.03
2018-09-01T04:57:24.373Z,4.20
2018-09-01T04:57:57.347Z,3.92
2018-09-01T04:58:30.503Z,3.85
2018-09-01T04:59:03.991Z,3.50
2018-09-01T04:59:36.909Z,3.92
2018-09-01T05:00:10.188Z,3.77
2018-09-01T05:00:43.294Z,3.42
2018-09-01T05:01:16.427Z,3.50
2018-09-01T05:01:49.595Z,3.67
2018-09-01T05:02:22.517Z,3.70
2018-09-01T05:02:55.648Z,4.00
2018-09-01T05:03:28.595Z,4.20
2018-09-01T05:04:01.504Z,3.70
2018-09-01T05:04:34.521Z,4.05
2018-09-01T05:05:07.420Z,4.30
2018-09-01T05:05:40.618Z,3.85
2018-09-01T05:06:13.798Z,3.52
2018-09-01T05:06:46.950Z,3.30
2018-09-01T05:07:19.856Z,3.98
2018-09-01T05:07:52.783Z,3.30
2018-09-01T05:08:25.702Z,4.03
2018-09-01T05:08:58.731Z,3.55
2018-09-01T05:09:31.934Z,3.42
2018-09-01T05:10:04.849Z,3.55
2018-09-01T05:10:37.985Z,4.10
2018-09-01T05:11:10.957Z,3.40
2018-09-01T05:11:44.040Z,3.65
2018-09-01T05:12:17.184Z,3.75
2018-09-01T05:12:50.414Z,3.92
2018-09-01T05:13:23.388Z,3.90
2018-09-01T05:13:56.355Z,3.60
2018-09-01T05:14:29.285Z,3.70
2018-09-01T05:15:02.459Z,3.75
2018-09-01T05:15:35.690Z,3.70
2018-09-01T05:16:08.610Z,3.85
2018-09-01T05:16:41.732Z,3.98
2018-09-01T05:17:14.655Z,3.75
2018-09-01T05:17:47.781Z,3.52
2018-09-01T05:18:20.740Z,4.00
2018-09-01T05:18:53.680Z,3.90
2018-09-01T05:19:26.691Z,4.22
2018-09-01T05:19:59.833Z,3.75
2018-09-01T05:20:32.729Z,3.77
2018-09-01T05:21:05.670Z,4.45
2018-09-01T05:21:38.571Z,3.98
2018-09-01T05:22:11.659Z,3.85
2018-09-01T05:22:44.556Z,4.47
2018-09-01T05:23:18.029Z,4.42
2018-09-01T05:23:51.368Z,4.10
2018-09-01T05:24:24.246Z,4.35
2018-09-01T05:24:57.486Z,3.80
2018-09-01T05:25:30.415Z,4.70
2018-09-01T05:26:03.330Z,3.65
2018-09-01T05:26:36.442Z,4.12
2018-09-01T05:27:09.367Z,3.95
2018-09-01T05:27:42.500Z,4.22
2018-09-01T05:28:15.681Z,3.42
2018-09-01T05:28:48.882Z,3.65
2018-09-01T05:29:21.811Z,3.33
2018-09-01T05:29:55.955Z,3.80
2018-09-01T05:30:29.489Z,4.40
2018-09-01T05:31:02.537Z,4.30
2018-09-01T05:31:35.447Z,4.17
2018-09-01T05:32:08.540Z,4.30
2018-09-01T05:32:41.797Z,3.65
2018-09-01T05:33:14.894Z,4.60
2018-09-01T05:33:48.111Z,4.60
2018-09-01T05:34:21.284Z,4.10
2018-09-01T05:34:54.209Z,4.30
2018-09-01T05:35:27.142Z,4.45
2018-09-01T05:36:00.271Z,4.10
2018-09-01T05:36:33.520Z,4.62
2018-09-01T05:37:06.563Z,4.00
2018-09-01T05:37:39.676Z,3.80
2018-09-01T05:38:12.578Z,3.85
2018-09-01T05:38:45.477Z,3.95
2018-09-01T05:39:18.400Z,4.28
2018-09-01T05:39:51.805Z,3.90
2018-09-01T05:40:25.029Z,4.20
2018-09-01T05:40:57.942Z,4.17
2018-09-01T05:41:31.167Z,3.62
2018-09-01T05:42:04.271Z,3.85
2018-09-01T05:42:37.183Z,4.20
2018-09-01T05:43:10.550Z,4.12
2018-09-01T05:43:43.507Z,4.20
2018-09-01T05:44:16.670Z,4.40
2018-09-01T05:44:49.789Z,3.62
2018-09-01T05:45:22.701Z,3.80
2018-09-01T05:45:55.910Z,4.03
2018-09-01T05:46:28.817Z,4.15
2018-09-01T05:47:01.971Z,3.60
2018-09-01T05:47:35.146Z,4.65
2018-09-01T05:48:08.242Z,4.70
2018-09-01T05:48:41.160Z,4.00
2018-09-01T05:49:14.377Z,4.10
2018-09-01T05:49:47.482Z,4.30
2018-09-01T05:50:21.015Z,3.90
2018-09-01T05:50:53.934Z,4.25
2018-09-01T05:51:27.062Z,4.70
2018-09-01T05:52:00.188Z,4.30
2018-09-01T05:52:34.500Z,4.37
2018-09-01T05:53:07.481Z,4.05
2018-09-01T05:53:40.812Z,4.33
2018-09-01T05:54:13.921Z,4.03
2018-09-01T05:54:47.034Z,4.97
2018-09-01T05:55:19.969Z,4.30
2018-09-01T05:55:53.421Z,4.50
2018-09-01T05:56:26.432Z,4.30
2018-09-01T05:56:59.361Z,3.75
2018-09-01T05:57:32.378Z,4.05
2018-09-01T05:58:05.493Z,4.00
2018-09-01T05:58:38.709Z,4.00
2018-09-01T05:59:11.742Z,4.37
2018-09-01T05:59:44.937Z,3.60
2018-09-01T06:00:20.715Z,5.33
2018-09-01T06:00:53.854Z,4.85
2018-09-01T06:01:27.042Z,4.78
2018-09-01T06:01:59.947Z,4.33
2018-09-01T06:02:32.894Z,4.62
2018-09-01T06:03:05.973Z,4.20
2018-09-01T06:03:39.252Z,4.05
2018-09-01T06:04:12.292Z,4.15
2018-09-01T06:04:45.199Z,5.10
2018-09-01T06:05:18.086Z,4.42
2018-09-01T06:05:51.230Z,3.72
2018-09-01T06:06:24.458Z,4.62
2018-09-01T06:06:57.901Z,4.80
2018-09-01T06:07:30.944Z,4.95
2018-09-01T06:08:03.959Z,4.30
2018-09-01T06:08:37.129Z,4.70
2018-09-01T06:09:10.880Z,4.78
2018-09-01T06:09:43.859Z,4.90
2018-09-01T06:10:17.005Z,4.97
2018-09-01T06:10:50.145Z,4.15
2018-09-01T06:11:23.273Z,4.87
2018-09-01T06:11:56.205Z,4.10
2018-09-01T06:12:29.307Z,4.95
2018-09-01T06:13:02.241Z,4.80
2018-09-01T06:13:35.548Z,5.08
2018-09-01T06:14:08.748Z,4.45
2018-09-01T06:14:41.902Z,4.15
2018-09-01T06:15:14.977Z,4.25
2018-09-01T06:15:47.896Z,4.60
2018-09-01T06:16:21.122Z,4.35
2018-09-01T06:16:54.183Z,4.15
2018-09-01T06:17:27.440Z,4.97
2018-09-01T06:18:00.554Z,3.75
2018-09-01T06:18:33.849Z,4.10
2018-09-01T06:19:06.963Z,4.25
2018-09-01T06:19:40.106Z,4.28
2018-09-01T06:20:13.041Z,5.95
2018-09-01T06:20:46.150Z,5.12
2018-09-01T06:21:19.142Z,5.53
2018-09-01T06:21:52.100Z,5.40
2018-09-01T06:22:25.149Z,4.10
2018-09-01T06:22:58.262Z,4.25
2018-09-01T06:23:31.424Z,4.80
2018-09-01T06:24:04.562Z,4.72
2018-09-01T06:24:37.578Z,5.12
2018-09-01T06:25:10.485Z,4.50
2018-09-01T06:25:43.484Z,4.20
2018-09-01T06:26:16.970Z,4.12
2018-09-01T06:26:49.882Z,4.92
2018-09-01T06:27:26.575Z,4.42
2018-09-01T06:28:03.866Z,4.92
2018-09-01T06:28:44.745Z,4.60
2018-09-01T06:29:18.825Z,4.33
2018-09-01T06:29:51.746Z,4.85
2018-09-01T06:30:28.583Z,4.80
2018-09-01T06:31:01.545Z,5.50
2018-09-01T06:31:34.763Z,4.60
2018-09-01T06:32:08.274Z,5.03
2018-09-01T06:32:41.323Z,5.60
2018-09-01T06:33:14.477Z,4.60
2018-09-01T06:33:47.421Z,4.35
2018-09-01T06:34:20.648Z,4.80
2018-09-01T06:34:53.670Z,4.60
2018-09-01T06:35:26.597Z,4.95
2018-09-01T06:36:00.298Z,5.25
2018-09-01T06:36:33.529Z,5.00
2018-09-01T06:37:06.752Z,4.45
2018-09-01T06:37:39.745Z,5.28
2018-09-01T06:38:13.324Z,4.65
2018-09-01T06:38:46.279Z,4.58
2018-09-01T06:39:19.281Z,4.62
2018-09-01T06:39:52.318Z,4.80
2018-09-01T06:40:25.553Z,4.65
2018-09-01T06:40:58.646Z,4.62
2018-09-01T06:41:31.670Z,4.40
2018-09-01T06:42:04.848Z,4.70
2018-09-01T06:42:37.841Z,5.05
2018-09-01T06:43:10.809Z,5.05
2018-09-01T06:43:43.950Z,4.85
2018-09-01T06:44:16.922Z,4.65
2018-09-01T06:44:49.865Z,5.35
2018-09-01T06:45:22.870Z,5.45
2018-09-01T06:45:55.825Z,4.80
2018-09-01T06:46:28.767Z,4.75
2018-09-01T06:47:01.763Z,4.12
2018-09-01T06:47:34.726Z,5.40
2018-09-01T06:48:07.769Z,5.45
2018-09-01T06:48:40.744Z,5.40
2018-09-01T06:49:14.257Z,4.55
2018-09-01T06:49:47.372Z,5.45
2018-09-01T06:50:20.754Z,5.83
2018-09-01T06:50:53.743Z,5.83
2018-09-01T06:51:27.022Z,5.35
2018-09-01T06:52:00.091Z,5.65
2018-09-01T06:52:33.323Z,4.20
2018-09-01T06:53:06.456Z,4.67
2018-09-01T06:53:39.439Z,4.37
2018-09-01T06:54:12.876Z,5.03
2018-09-01T06:54:46.111Z,4.80
2018-09-01T06:55:19.199Z,4.40
2018-09-01T06:55:52.731Z,5.08
2018-09-01T06:56:25.814Z,4.50
2018-09-01T06:56:58.813Z,5.20
2018-09-01T06:57:31.859Z,4.67
2018-09-01T06:58:04.858Z,4.00
2018-09-01T06:58:37.871Z,4.72
2018-09-01T06:59:11.180Z,5.00
2018-09-01T06:59:44.412Z,5.30
2018-09-01T07:00:21.950Z,5.72
2018-09-01T07:00:55.024Z,5.33
2018-09-01T07:01:28.426Z,5.50
2018-09-01T07:02:01.635Z,4.75
2018-09-01T07:02:34.804Z,4.87
2018-09-01T07:03:07.752Z,4.67
2018-09-01T07:03:40.876Z,5.70
2018-09-01T07:04:14.053Z,4.80
2018-09-01T07:04:47.003Z,4.72
2018-09-01T07:05:19.974Z,5.05
2018-09-01T07:05:52.936Z,5.08
2018-09-01T07:06:25.877Z,6.12
2018-09-01T07:06:59.018Z,6.33
2018-09-01T07:07:32.327Z,4.47
2018-09-01T07:08:05.426Z,5.12
2018-09-01T07:08:38.652Z,4.78
2018-09-01T07:09:11.578Z,5.17
2018-09-01T07:09:44.541Z,4.33
2018-09-01T07:10:17.502Z,4.80
2018-09-01T07:10:50.458Z,5.00
2018-09-01T07:11:23.385Z,5.22
2018-09-01T07:11:56.298Z,4.05
2018-09-01T07:12:29.228Z,4.60
2018-09-01T07:13:02.449Z,5.15
2018-09-01T07:13:35.617Z,5.95
2018-09-01T07:14:08.818Z,5.80
2018-09-01T07:14:41.908Z,6.40
2018-09-01T07:15:15.023Z,5.90
2018-09-01T07:15:48.118Z,6.22
2018-09-01T07:16:21.326Z,6.05
2018-09-01T07:16:54.476Z,5.90
2018-09-01T07:17:27.561Z,6.03
2018-09-01T07:18:00.677Z,6.80
2018-09-01T07:18:34.033Z,5.95
2018-09-01T07:19:06.985Z,5.47
2018-09-01T07:19:39.942Z,5.92
2018-09-01T07:20:13.164Z,6.40
2018-09-01T07:20:46.137Z,6.40
2018-09-01T07:21:19.104Z,5.15